createdAt,value
2022-12-23T00:02:48.804Z,80.88
2022-12-23T00:08:10.453Z,80.93
2022-12-23T00:13:52.048Z,81.13
2022-12-23T00:19:14.071Z,81.01
2022-12-23T00:24:36.001Z,81.02
2022-12-23T00:29:57.502Z,81.24
2022-12-23T00:35:19.964Z,81.21
2022-12-23T00:40:59.956Z,81.33
2022-12-23T00:46:21.905Z,81.38
2022-12-23T00:51:43.813Z,81.38
2022-12-23T00:57:05.843Z,81.40
2022-12-23T01:02:46.437Z,81.11
2022-12-23T01:08:10.475Z,80.99
2022-12-23T01:13:33.032Z,80.83
2022-12-23T01:18:54.640Z,80.84
2022-12-23T01:24:17.169Z,80.83
2022-12-23T01:29:39.395Z,80.77
2022-12-23T01:35:01.324Z,80.84
2022-12-23T01:40:23.070Z,80.47
2022-12-23T01:45:45.331Z,80.20
2022-12-23T01:51:09.503Z,80.25
2022-12-23T01:56:35.626Z,80.26
2022-12-23T02:02:16.509Z,80.60
2022-12-23T02:07:56.953Z,80.59
2022-12-23T02:14:13.034Z,80.73
2022-12-23T02:19:52.777Z,81.00
2022-12-23T02:25:22.421Z,81.15
2022-12-23T02:30:50.638Z,80.98
2022-12-23T02:36:24.661Z,81.16
2022-12-23T02:42:04.435Z,81.01
2022-12-23T02:47:30.558Z,81.11
2022-12-23T02:52:52.609Z,81.12
2022-12-23T02:58:16.548Z,81.20
2022-12-23T03:03:38.943Z,81.19
2022-12-23T03:09:01.307Z,81.30
2022-12-23T03:14:34.930Z,81.51
2022-12-23T03:20:21.709Z,81.97
2022-12-23T03:25:59.277Z,82.15
2022-12-23T03:31:25.801Z,82.10
2022-12-23T03:36:57.591Z,82.14
2022-12-23T03:42:37.184Z,81.99
2022-12-23T03:48:07.123Z,82.01
2022-12-23T03:53:35.631Z,81.86
2022-12-23T03:59:00.240Z,81.91
2022-12-23T04:04:27.578Z,81.82
2022-12-23T04:09:51.617Z,82.10
2022-12-23T04:15:13.645Z,81.94
2022-12-23T04:20:35.269Z,82.02
2022-12-23T04:25:57.276Z,82.07
2022-12-23T04:31:19.248Z,82.07
2022-12-23T04:36:41.158Z,81.80
2022-12-23T04:42:03.091Z,81.87
2022-12-23T04:47:24.716Z,81.87
2022-12-23T04:52:46.352Z,81.97
2022-12-23T04:58:08.474Z,82.06
2022-12-23T05:03:30.905Z,82.15
2022-12-23T05:08:52.736Z,82.02
2022-12-23T05:14:14.973Z,82.18
2022-12-23T05:19:37.095Z,81.96
2022-12-23T05:24:58.923Z,81.90
2022-12-23T05:30:20.958Z,81.78
2022-12-23T05:35:42.881Z,82.23
2022-12-23T05:41:05.216Z,82.16
2022-12-23T05:46:27.406Z,81.84
2022-12-23T05:51:49.473Z,81.79
2022-12-23T05:57:11.402Z,82.06
2022-12-23T06:02:33.489Z,82.10
2022-12-23T06:07:55.584Z,81.95
2022-12-23T06:13:21.016Z,81.89
2022-12-23T06:18:42.837Z,81.96
2022-12-23T06:24:05.463Z,81.94
2022-12-23T06:29:27.597Z,81.65
2022-12-23T06:34:53.491Z,81.74
2022-12-23T06:40:15.369Z,81.75
2022-12-23T06:45:37.426Z,81.41
2022-12-23T06:50:59.126Z,81.91
2022-12-23T06:56:21.364Z,81.74
2022-12-23T07:01:45.177Z,81.80
2022-12-23T07:07:06.923Z,81.86
2022-12-23T07:12:28.747Z,81.57
2022-12-23T07:17:50.487Z,81.50
2022-12-23T07:23:12.502Z,81.32
2022-12-23T07:28:34.135Z,81.28
2022-12-23T07:33:56.064Z,81.33
2022-12-23T07:39:18.064Z,80.91
2022-12-23T07:44:40.022Z,80.86
2022-12-23T07:50:02.250Z,80.57
2022-12-23T07:55:24.282Z,80.95
2022-12-23T08:00:45.811Z,81.01
2022-12-23T08:06:14.430Z,81.34
2022-12-23T08:11:36.294Z,81.24
2022-12-23T08:16:58.174Z,81.03
2022-12-23T08:22:20.149Z,81.41
2022-12-23T08:27:41.889Z,81.38
2022-12-23T08:33:03.806Z,81.85
2022-12-23T08:38:25.739Z,81.67
2022-12-23T08:43:48.190Z,81.79
2022-12-23T08:49:11.000Z,81.60
2022-12-23T08:54:33.233Z,81.55
2022-12-23T08:59:55.060Z,81.94
2022-12-23T09:05:16.895Z,81.83
2022-12-23T09:10:44.437Z,81.69
2022-12-23T09:16:07.050Z,81.83
2022-12-23T09:21:29.099Z,82.40
2022-12-23T09:26:51.130Z,82.17
2022-12-23T09:32:13.259Z,81.96
2022-12-23T09:37:36.385Z,82.10
2022-12-23T09:43:07.053Z,81.98
2022-12-23T09:48:35.024Z,82.28
2022-12-23T09:54:17.548Z,81.62
2022-12-23T09:59:45.555Z,81.89
2022-12-23T10:05:19.728Z,81.89
2022-12-23T10:11:01.796Z,81.54
2022-12-23T10:16:26.723Z,81.47
2022-12-23T10:21:52.211Z,80.92
2022-12-23T10:27:36.031Z,81.01
2022-12-23T10:33:00.569Z,81.05
2022-12-23T10:38:31.519Z,81.17
2022-12-23T10:44:18.435Z,81.16
2022-12-23T10:49:54.822Z,80.94
2022-12-23T10:55:31.270Z,80.85
2022-12-23T11:00:58.833Z,80.62
2022-12-23T11:06:21.683Z,80.61
2022-12-23T11:11:59.068Z,80.49
2022-12-23T11:17:24.901Z,80.65
2022-12-23T11:23:06.207Z,80.70
2022-12-23T11:28:28.650Z,80.90
2022-12-23T11:34:02.011Z,80.99
2022-12-23T11:39:29.141Z,80.76
2022-12-23T11:44:53.719Z,81.26
2022-12-23T11:50:29.085Z,80.84
2022-12-23T11:56:07.136Z,81.08
2022-12-23T12:01:29.385Z,81.46
2022-12-23T12:06:56.275Z,81.07
2022-12-23T12:12:21.300Z,81.15
2022-12-23T12:17:47.554Z,81.14
2022-12-23T12:23:37.929Z,81.18
2022-12-23T12:29:25.660Z,81.47
2022-12-23T12:34:47.494Z,81.32
2022-12-23T12:40:18.449Z,81.23
2022-12-23T12:46:04.084Z,81.25
2022-12-23T12:51:39.673Z,81.20
2022-12-23T12:57:02.485Z,81.04
2022-12-23T13:02:31.343Z,81.04
2022-12-23T13:08:02.068Z,81.25
2022-12-23T13:13:46.189Z,81.11
2022-12-23T13:19:28.390Z,81.15
2022-12-23T13:25:08.587Z,80.98
2022-12-23T13:30:36.763Z,81.21
2022-12-23T13:36:13.572Z,80.76
2022-12-23T13:41:48.490Z,80.84
2022-12-23T13:47:19.052Z,81.05
2022-12-23T13:52:43.986Z,80.71
2022-12-23T13:58:11.942Z,80.35
2022-12-23T14:03:35.275Z,80.73
2022-12-23T14:08:57.404Z,80.55
2022-12-23T14:14:22.926Z,80.51
2022-12-23T14:20:02.854Z,80.77
2022-12-23T14:25:44.142Z,80.10
2022-12-23T14:31:06.307Z,80.30
2022-12-23T14:36:28.789Z,79.83
2022-12-23T14:41:53.436Z,79.97
2022-12-23T14:47:32.132Z,79.92
2022-12-23T14:53:02.363Z,79.95
2022-12-23T14:58:29.592Z,79.77
2022-12-23T15:03:59.076Z,80.13
2022-12-23T15:09:32.463Z,79.67
2022-12-23T15:14:58.002Z,79.57
2022-12-23T15:20:23.307Z,80.25
2022-12-23T15:25:46.884Z,80.57
2022-12-23T15:31:27.512Z,80.80
2022-12-23T15:36:54.551Z,80.39
2022-12-23T15:42:35.644Z,80.34
2022-12-23T15:47:57.748Z,80.41
2022-12-23T15:53:20.068Z,80.07
2022-12-23T15:58:44.120Z,80.38
2022-12-23T16:04:07.146Z,80.23
2022-12-23T16:09:36.105Z,80.41
2022-12-23T16:15:01.011Z,80.28
2022-12-23T16:20:26.885Z,80.39
2022-12-23T16:25:51.774Z,80.47
2022-12-23T16:31:16.910Z,81.00
2022-12-23T16:36:38.931Z,81.46
2022-12-23T16:42:00.821Z,80.90
2022-12-23T16:47:23.159Z,81.04
2022-12-23T16:52:44.777Z,81.05
2022-12-23T16:58:06.609Z,81.27
2022-12-23T17:03:28.639Z,80.96
2022-12-23T17:08:51.172Z,81.00
2022-12-23T17:14:19.117Z,81.14
2022-12-23T17:19:40.972Z,81.01
2022-12-23T17:25:04.543Z,81.31
2022-12-23T17:30:26.615Z,81.60
2022-12-23T17:35:48.550Z,81.31
2022-12-23T17:41:27.904Z,81.16
2022-12-23T17:46:49.764Z,81.25
2022-12-23T17:52:20.277Z,81.33
2022-12-23T17:57:42.250Z,81.15
2022-12-23T18:03:07.516Z,81.30
2022-12-23T18:08:29.323Z,81.22
2022-12-23T18:13:52.065Z,81.22
2022-12-23T18:19:18.295Z,81.17
2022-12-23T18:24:39.851Z,81.06
2022-12-23T18:30:01.732Z,81.38
2022-12-23T18:35:28.110Z,80.54
2022-12-23T18:40:53.946Z,81.10
2022-12-23T18:46:15.872Z,81.42
2022-12-23T18:51:37.932Z,81.12
2022-12-23T18:57:01.212Z,81.23
2022-12-23T19:02:23.128Z,81.12
2022-12-23T19:07:46.500Z,80.95
2022-12-23T19:13:09.338Z,81.30
2022-12-23T19:18:31.123Z,81.09
2022-12-23T19:23:53.156Z,81.21
2022-12-23T19:29:15.076Z,81.15
2022-12-23T19:34:36.875Z,80.85
2022-12-23T19:39:59.968Z,80.84
2022-12-23T19:45:21.681Z,80.72
2022-12-23T19:50:43.274Z,81.03
2022-12-23T19:56:06.609Z,80.81
2022-12-23T20:01:28.751Z,81.13
2022-12-23T20:06:51.435Z,80.74
2022-12-23T20:12:13.113Z,80.94
2022-12-23T20:17:35.099Z,80.92
2022-12-23T20:22:57.034Z,80.75
2022-12-23T20:28:19.613Z,80.73
2022-12-23T20:33:45.042Z,80.72
2022-12-23T20:39:06.975Z,80.86
2022-12-23T20:44:37.267Z,80.59
2022-12-23T20:49:59.717Z,81.02
2022-12-23T20:55:21.227Z,80.57
2022-12-23T21:00:42.970Z,80.96
2022-12-23T21:06:06.009Z,80.86
2022-12-23T21:11:29.641Z,80.69
2022-12-23T21:16:51.669Z,80.65
2022-12-23T21:22:13.340Z,80.48
2022-12-23T21:27:35.331Z,80.60
2022-12-23T21:33:00.376Z,80.11
2022-12-23T21:38:22.101Z,80.48
2022-12-23T21:43:44.342Z,80.52
2022-12-23T21:49:06.265Z,80.50
2022-12-23T21:54:28.012Z,80.33
2022-12-23T21:59:50.117Z,80.25
2022-12-23T22:05:12.042Z,80.02
2022-12-23T22:10:37.597Z,80.13
2022-12-23T22:15:59.340Z,79.64
2022-12-23T22:21:23.782Z,79.67
2022-12-23T22:26:45.639Z,79.82
2022-12-23T22:32:07.760Z,79.82
2022-12-23T22:37:29.444Z,80.03
2022-12-23T22:42:51.371Z,79.63
2022-12-23T22:48:13.708Z,79.67
2022-12-23T22:53:36.640Z,79.86
2022-12-23T22:58:58.890Z,79.96
2022-12-23T23:04:20.905Z,79.47
2022-12-23T23:09:42.827Z,79.53
2022-12-23T23:15:05.662Z,79.72
2022-12-23T23:20:27.786Z,79.89
2022-12-23T23:25:49.730Z,80.33
2022-12-23T23:36:54.143Z,81.05
2022-12-23T23:42:18.002Z,80.81
2022-12-23T23:47:40.013Z,80.87
2022-12-23T23:53:01.547Z,80.68
2022-12-23T23:58:23.507Z,80.84
